WZZ6LM LHBP-EDDB
Flight info
| Callsign | WZZ6LM |
|---|---|
| Flight time | N/A |
| Altitude | 34000 |
| Route | BADOV DCT MAVOR DCT KATQA DCT ODLIV DCT BEFRE T204 IVDUF/N0441F300 T204 NUKRO |
| Aircraft | A321/M-SDE3FGHIRWY/LB1 |
Departure
| Time | 2026-05-05 17:23 |
|---|---|
| Airport | Budapest Liszt Ferenc International Airport (LHBP) |
Arrival
| Time | N/A |
|---|---|
| Airport | Berlin Brandenburg Airport (EDDB) |
| Time | Latitude | Longitude | Altitude | Speed | Heading |
|---|---|---|---|---|---|
| 2026-05-05 16:40 | 47.43564 | 19.26392 | 458 ft | 0 kts | 222° |
| 2026-05-05 17:15 | 47.43573 | 19.26404 | 457 ft | 4 kts | 222° |
| 2026-05-05 17:15 | 47.43590 | 19.26428 | 458 ft | 4 kts | 242° |
| 2026-05-05 17:15 | 47.43594 | 19.26459 | 457 ft | 4 kts | 296° |
| 2026-05-05 17:16 | 47.43581 | 19.26486 | 455 ft | 1 kts | 313° |
| 2026-05-05 17:16 | 47.43579 | 19.26490 | 455 ft | 0 kts | 313° |
| 2026-05-05 17:18 | 47.43579 | 19.26489 | 455 ft | 1 kts | 313° |
| 2026-05-05 17:19 | 47.43586 | 19.26478 | 455 ft | 2 kts | 313° |
| 2026-05-05 17:19 | 47.43602 | 19.26453 | 458 ft | 4 kts | 313° |
| 2026-05-05 17:19 | 47.43624 | 19.26417 | 458 ft | 6 kts | 313° |
| 2026-05-05 17:19 | 47.43655 | 19.26369 | 458 ft | 7 kts | 318° |
| 2026-05-05 17:20 | 47.43705 | 19.26360 | 458 ft | 8 kts | 24° |
| 2026-05-05 17:20 | 47.43752 | 19.26414 | 458 ft | 9 kts | 28° |
| 2026-05-05 17:20 | 47.43809 | 19.26386 | 458 ft | 10 kts | 314° |
| 2026-05-05 17:20 | 47.43857 | 19.26306 | 458 ft | 11 kts | 311° |
| 2026-05-05 17:21 | 47.43914 | 19.26221 | 458 ft | 12 kts | 329° |
| 2026-05-05 17:21 | 47.43990 | 19.26249 | 458 ft | 12 kts | 45° |
| 2026-05-05 17:21 | 47.44046 | 19.26339 | 464 ft | 12 kts | 52° |
| 2026-05-05 17:22 | 47.44076 | 19.26509 | 471 ft | 5 kts | 114° |
| 2026-05-05 17:22 | 47.44063 | 19.26533 | 470 ft | 0 kts | 135° |
| 2026-05-05 17:22 | 47.44049 | 19.26553 | 469 ft | 10 kts | 135° |
| 2026-05-05 17:23 | 47.43828 | 19.26905 | 473 ft | 84 kts | 133° |
| 2026-05-05 17:23 | 47.43277 | 19.27793 | 464 ft | 148 kts | 132° |
| 2026-05-05 17:23 | 47.42511 | 19.29062 | 787 ft | 167 kts | 135° |
| 2026-05-05 17:23 | 47.41814 | 19.30371 | 1616 ft | 159 kts | 126° |
| 2026-05-05 17:24 | 47.41305 | 19.31769 | 2285 ft | 159 kts | 122° |
| 2026-05-05 17:24 | 47.40749 | 19.33352 | 2532 ft | 182 kts | 122° |
| 2026-05-05 17:24 | 47.40153 | 19.35061 | 2867 ft | 196 kts | 121° |
| 2026-05-05 17:24 | 47.39506 | 19.36913 | 3222 ft | 211 kts | 122° |
| 2026-05-05 17:25 | 47.38789 | 19.38900 | 3564 ft | 229 kts | 121° |
| 2026-05-05 17:25 | 47.38376 | 19.40436 | 3743 ft | 250 kts | 102° |
| 2026-05-05 17:25 | 47.38907 | 19.43875 | 4363 ft | 279 kts | 56° |
| 2026-05-05 17:25 | 47.40293 | 19.45912 | 5116 ft | 286 kts | 33° |
| 2026-05-05 17:26 | 47.42131 | 19.47020 | 5895 ft | 288 kts | 8° |
| 2026-05-05 17:26 | 47.44117 | 19.46910 | 6694 ft | 287 kts | 342° |
| 2026-05-05 17:26 | 47.45892 | 19.45600 | 7425 ft | 287 kts | 320° |
| 2026-05-05 17:26 | 47.47492 | 19.43793 | 8179 ft | 290 kts | 320° |
| 2026-05-05 17:27 | 47.49103 | 19.41966 | 8950 ft | 294 kts | 319° |
| 2026-05-05 17:27 | 47.50740 | 19.40111 | 9715 ft | 298 kts | 319° |
| 2026-05-05 17:27 | 47.52407 | 19.38225 | 10274 ft | 310 kts | 320° |
| 2026-05-05 17:27 | 47.54183 | 19.36217 | 10477 ft | 333 kts | 320° |
| 2026-05-05 17:28 | 47.56087 | 19.34067 | 10627 ft | 356 kts | 320° |
| 2026-05-05 17:28 | 47.58098 | 19.31796 | 11041 ft | 368 kts | 320° |
| 2026-05-05 17:28 | 47.60144 | 19.29483 | 11704 ft | 372 kts | 320° |
| 2026-05-05 17:28 | 47.62216 | 19.27145 | 12403 ft | 375 kts | 320° |
| 2026-05-05 17:29 | 47.64302 | 19.24791 | 13104 ft | 378 kts | 321° |
| 2026-05-05 17:29 | 47.66404 | 19.22420 | 13799 ft | 382 kts | 321° |
| 2026-05-05 17:29 | 47.68524 | 19.20023 | 14432 ft | 385 kts | 321° |
| 2026-05-05 17:29 | 47.70662 | 19.17601 | 15075 ft | 387 kts | 321° |
| 2026-05-05 17:30 | 47.72808 | 19.15161 | 15724 ft | 390 kts | 321° |
| 2026-05-05 17:30 | 47.74969 | 19.12698 | 16386 ft | 393 kts | 320° |
| 2026-05-05 17:30 | 47.77141 | 19.10218 | 17042 ft | 395 kts | 321° |
| 2026-05-05 17:30 | 47.79332 | 19.07720 | 17690 ft | 398 kts | 321° |
| 2026-05-05 17:31 | 47.81534 | 19.05213 | 18301 ft | 401 kts | 321° |
| 2026-05-05 17:31 | 47.83758 | 19.02683 | 18877 ft | 403 kts | 321° |
| 2026-05-05 17:31 | 47.85992 | 19.00136 | 19437 ft | 406 kts | 321° |
| 2026-05-05 17:31 | 47.88208 | 18.97600 | 19965 ft | 408 kts | 320° |
| 2026-05-05 17:32 | 47.90460 | 18.95012 | 20520 ft | 410 kts | 320° |
| 2026-05-05 17:32 | 47.92726 | 18.92399 | 21052 ft | 413 kts | 320° |
| 2026-05-05 17:32 | 47.95003 | 18.89776 | 21565 ft | 415 kts | 320° |
| 2026-05-05 17:32 | 47.97303 | 18.87127 | 22072 ft | 418 kts | 320° |
| 2026-05-05 17:33 | 47.99608 | 18.84473 | 22578 ft | 420 kts | 320° |
| 2026-05-05 17:33 | 48.01909 | 18.81762 | 23055 ft | 422 kts | 317° |
| 2026-05-05 17:33 | 48.03990 | 18.78676 | 23509 ft | 423 kts | 312° |
| 2026-05-05 17:33 | 48.06027 | 18.75483 | 23924 ft | 425 kts | 312° |
| 2026-05-05 17:34 | 48.08072 | 18.72280 | 24332 ft | 427 kts | 312° |
| 2026-05-05 17:34 | 48.10130 | 18.69061 | 24733 ft | 429 kts | 312° |
| 2026-05-05 17:34 | 48.12199 | 18.65829 | 25144 ft | 431 kts | 312° |
| 2026-05-05 17:34 | 48.14272 | 18.62580 | 25544 ft | 433 kts | 312° |
| 2026-05-05 17:35 | 48.16351 | 18.59312 | 25935 ft | 435 kts | 312° |
| 2026-05-05 17:35 | 48.18441 | 18.56020 | 26319 ft | 436 kts | 312° |
| 2026-05-05 17:35 | 48.20539 | 18.52712 | 26695 ft | 438 kts | 312° |
| 2026-05-05 17:35 | 48.22643 | 18.49393 | 27060 ft | 440 kts | 312° |
| 2026-05-05 17:36 | 48.24046 | 18.47176 | 27300 ft | 442 kts | 312° |
| 2026-05-05 17:36 | 48.26162 | 18.43831 | 27665 ft | 444 kts | 312° |
| 2026-05-05 17:36 | 48.28300 | 18.40453 | 28046 ft | 446 kts | 312° |
| 2026-05-05 17:36 | 48.30439 | 18.37071 | 28424 ft | 448 kts | 312° |
| 2026-05-05 17:37 | 48.32590 | 18.33667 | 28785 ft | 450 kts | 312° |
| 2026-05-05 17:37 | 48.34740 | 18.30259 | 29253 ft | 449 kts | 312° |
| 2026-05-05 17:37 | 48.36883 | 18.26851 | 29802 ft | 447 kts | 312° |
| 2026-05-05 17:37 | 48.39010 | 18.23460 | 30251 ft | 445 kts | 312° |
| 2026-05-05 17:38 | 48.41128 | 18.20076 | 30678 ft | 444 kts | 311° |
| 2026-05-05 17:38 | 48.43237 | 18.16702 | 31098 ft | 442 kts | 311° |
| 2026-05-05 17:38 | 48.45348 | 18.13326 | 31529 ft | 441 kts | 311° |
| 2026-05-05 17:38 | 48.47445 | 18.09967 | 31943 ft | 440 kts | 311° |
| 2026-05-05 17:39 | 48.49539 | 18.06608 | 32361 ft | 439 kts | 311° |
| 2026-05-05 17:39 | 48.51626 | 18.03253 | 32772 ft | 438 kts | 311° |
| 2026-05-05 17:39 | 48.53706 | 17.99905 | 33186 ft | 437 kts | 311° |
| 2026-05-05 17:39 | 48.55778 | 17.96572 | 33595 ft | 436 kts | 311° |
| 2026-05-05 17:40 | 48.57854 | 17.93229 | 33829 ft | 436 kts | 311° |
| 2026-05-05 17:40 | 48.61968 | 17.86588 | 33869 ft | 432 kts | 311° |
| 2026-05-05 17:41 | 48.66058 | 17.79959 | 33867 ft | 431 kts | 311° |
| 2026-05-05 17:41 | 48.70148 | 17.73333 | 33866 ft | 431 kts | 311° |
| 2026-05-05 17:42 | 48.74234 | 17.66696 | 33855 ft | 430 kts | 311° |
| 2026-05-05 17:42 | 48.78304 | 17.60042 | 33845 ft | 430 kts | 310° |
| 2026-05-05 17:43 | 48.82373 | 17.53377 | 33827 ft | 431 kts | 311° |